sensor_id;sensor_type;location;lat;lon;timestamp;pressure;altitude;pressure_sealevel;temperature;humidity
63395;BME280;49531;-34.520;150.798;2024-03-23T00:56:19;101389.59;;;25.38;53.23
63395;BME280;49531;-34.520;150.798;2024-03-23T00:58:45;101383.00;;;25.44;53.10
63395;BME280;49531;-34.520;150.798;2024-03-23T01:01:12;101391.50;;;25.42;53.27
63395;BME280;49531;-34.520;150.798;2024-03-23T01:03:38;101389.84;;;25.46;53.27
63395;BME280;49531;-34.520;150.798;2024-03-23T01:06:05;101390.38;;;25.48;53.10
63395;BME280;49531;-34.520;150.798;2024-03-23T01:08:31;101391.19;;;25.54;53.21
63395;BME280;49531;-34.520;150.798;2024-03-23T01:10:58;101389.81;;;25.56;53.22
63395;BME280;49531;-34.520;150.798;2024-03-23T01:13:25;101389.00;;;25.51;53.36
63395;BME280;49531;-34.520;150.798;2024-03-23T01:15:52;101391.22;;;25.49;53.33
63395;BME280;49531;-34.520;150.798;2024-03-23T01:18:19;101383.28;;;25.47;53.53
63395;BME280;49531;-34.520;150.798;2024-03-23T01:20:45;101378.63;;;25.48;52.89
63395;BME280;49531;-34.520;150.798;2024-03-23T01:23:12;101381.63;;;25.56;53.04
63395;BME280;49531;-34.520;150.798;2024-03-23T01:25:38;101378.63;;;25.53;53.24
63395;BME280;49531;-34.520;150.798;2024-03-23T01:28:05;101378.06;;;25.56;52.92
63395;BME280;49531;-34.520;150.798;2024-03-23T01:30:35;101379.41;;;25.58;52.77
63395;BME280;49531;-34.520;150.798;2024-03-23T01:33:02;101384.91;;;25.53;52.87
63395;BME280;49531;-34.520;150.798;2024-03-23T01:35:31;101379.44;;;25.48;52.88
63395;BME280;49531;-34.520;150.798;2024-03-23T01:37:57;101375.63;;;25.49;53.17
63395;BME280;49531;-34.520;150.798;2024-03-23T01:40:24;101369.59;;;25.52;52.87
63395;BME280;49531;-34.520;150.798;2024-03-23T01:42:56;101356.72;;;25.53;52.93
63395;BME280;49531;-34.520;150.798;2024-03-23T01:45:23;101360.56;;;25.47;53.04
63395;BME280;49531;-34.520;150.798;2024-03-23T01:47:50;101358.41;;;25.44;53.02
63395;BME280;49531;-34.520;150.798;2024-03-23T01:50:17;101360.03;;;25.50;53.13
63395;BME280;49531;-34.520;150.798;2024-03-23T01:52:43;101350.69;;;25.56;53.79
63395;BME280;49531;-34.520;150.798;2024-03-23T01:55:10;101343.00;;;25.63;53.64
63395;BME280;49531;-34.520;150.798;2024-03-23T01:57:36;101332.91;;;25.58;53.58
63395;BME280;49531;-34.520;150.798;2024-03-23T02:00:03;101330.41;;;25.62;53.41
63395;BME280;49531;-34.520;150.798;2024-03-23T02:02:29;101334.53;;;25.65;53.07
63395;BME280;49531;-34.520;150.798;2024-03-23T02:04:56;101337.81;;;25.67;52.90
63395;BME280;49531;-34.520;150.798;2024-03-23T02:07:22;101339.44;;;25.68;52.77
63395;BME280;49531;-34.520;150.798;2024-03-23T02:09:50;101347.34;;;25.74;52.97
63395;BME280;49531;-34.520;150.798;2024-03-23T02:12:17;101349.00;;;25.70;53.27
63395;BME280;49531;-34.520;150.798;2024-03-23T02:14:44;101345.19;;;25.71;53.63
63395;BME280;49531;-34.520;150.798;2024-03-23T02:17:10;101343.25;;;25.72;54.31
63395;BME280;49531;-34.520;150.798;2024-03-23T02:19:37;101341.31;;;25.77;54.07
63395;BME280;49531;-34.520;150.798;2024-03-23T02:22:04;101336.38;;;25.79;54.08
63395;BME280;49531;-34.520;150.798;2024-03-23T02:24:30;101331.47;;;25.76;53.99
63395;BME280;49531;-34.520;150.798;2024-03-23T02:26:57;101333.69;;;25.74;54.18
63395;BME280;49531;-34.520;150.798;2024-03-23T02:29:23;101331.78;;;25.70;54.76
63395;BME280;49531;-34.520;150.798;2024-03-23T02:31:50;101335.34;;;25.65;55.14
63395;BME280;49531;-34.520;150.798;2024-03-23T02:34:16;101334.50;;;25.75;54.67
63395;BME280;49531;-34.520;150.798;2024-03-23T02:36:42;101345.16;;;25.76;54.62
63395;BME280;49531;-34.520;150.798;2024-03-23T02:39:09;101348.44;;;25.78;55.28
63395;BME280;49531;-34.520;150.798;2024-03-23T02:41:36;101344.06;;;25.77;55.18
63395;BME280;49531;-34.520;150.798;2024-03-23T02:44:02;101336.66;;;25.78;55.34
63395;BME280;49531;-34.520;150.798;2024-03-23T02:46:29;101344.59;;;25.79;55.05
63395;BME280;49531;-34.520;150.798;2024-03-23T02:48:55;101334.47;;;25.80;55.11
63395;BME280;49531;-34.520;150.798;2024-03-23T02:51:22;101332.28;;;25.77;55.26
63395;BME280;49531;-34.520;150.798;2024-03-23T02:53:48;101321.06;;;25.78;54.99
63395;BME280;49531;-34.520;150.798;2024-03-23T02:56:15;101316.94;;;25.86;54.90
63395;BME280;49531;-34.520;150.798;2024-03-23T02:58:42;101318.00;;;25.90;55.46
63395;BME280;49531;-34.520;150.798;2024-03-23T03:01:09;101305.13;;;25.96;54.98
63395;BME280;49531;-34.520;150.798;2024-03-23T03:03:35;101293.06;;;25.97;55.09
63395;BME280;49531;-34.520;150.798;2024-03-23T03:06:01;101281.50;;;26.00;55.29
63395;BME280;49531;-34.520;150.798;2024-03-23T03:08:28;101278.47;;;26.06;54.86
63395;BME280;49531;-34.520;150.798;2024-03-23T03:10:54;101285.28;;;26.09;54.81
63395;BME280;49531;-34.520;150.798;2024-03-23T03:13:21;101281.44;;;26.10;54.66
63395;BME280;49531;-34.520;150.798;2024-03-23T03:15:47;101292.19;;;26.01;54.88
63395;BME280;49531;-34.520;150.798;2024-03-23T03:18:14;101285.03;;;26.05;54.00
63395;BME280;49531;-34.520;150.798;2024-03-23T03:20:40;101289.97;;;26.03;53.82
63395;BME280;49531;-34.520;150.798;2024-03-23T03:23:07;101292.78;;;25.98;54.28
63395;BME280;49531;-34.520;150.798;2024-03-23T03:25:34;101300.41;;;26.01;53.85
63395;BME280;49531;-34.520;150.798;2024-03-23T03:28:01;101291.91;;;26.03;54.17
63395;BME280;49531;-34.520;150.798;2024-03-23T03:30:27;101281.22;;;26.01;54.13
63395;BME280;49531;-34.520;150.798;2024-03-23T03:32:54;101271.63;;;26.04;54.35
63395;BME280;49531;-34.520;150.798;2024-03-23T03:35:20;101278.75;;;26.05;54.82
63395;BME280;49531;-34.520;150.798;2024-03-23T03:37:47;101270.53;;;26.05;54.40
63395;BME280;49531;-34.520;150.798;2024-03-23T03:40:14;101274.09;;;26.05;54.08
63395;BME280;49531;-34.520;150.798;2024-03-23T03:42:43;101276.56;;;26.02;54.08
63395;BME280;49531;-34.520;150.798;2024-03-23T03:45:10;101267.78;;;26.05;54.08
63395;BME280;49531;-34.520;150.798;2024-03-23T03:47:36;101267.53;;;26.01;54.01
63395;BME280;49531;-34.520;150.798;2024-03-23T03:50:03;101267.78;;;26.05;53.70
63395;BME280;49531;-34.520;150.798;2024-03-23T03:52:29;101264.06;;;25.96;53.68
63395;BME280;49531;-34.520;150.798;2024-03-23T03:55:01;101263.00;;;25.86;53.69
63395;BME280;49531;-34.520;150.798;2024-03-23T03:57:31;101261.97;;;25.77;53.87
63395;BME280;49531;-34.520;150.798;2024-03-23T03:59:57;101271.84;;;25.73;54.47
63395;BME280;49531;-34.520;150.798;2024-03-23T04:02:24;101269.63;;;25.75;54.53
63395;BME280;49531;-34.520;150.798;2024-03-23T04:04:50;101266.31;;;25.83;54.22
63395;BME280;49531;-34.520;150.798;2024-03-23T04:07:16;101261.91;;;25.87;53.84
63395;BME280;49531;-34.520;150.798;2024-03-23T04:09:44;101254.78;;;25.86;53.59
63395;BME280;49531;-34.520;150.798;2024-03-23T04:12:10;101254.81;;;25.81;53.58
63395;BME280;49531;-34.520;150.798;2024-03-23T04:14:36;101252.63;;;25.83;53.42
63395;BME280;49531;-34.520;150.798;2024-03-23T04:17:03;101259.75;;;25.79;53.49
63395;BME280;49531;-34.520;150.798;2024-03-23T04:19:29;101249.94;;;25.73;53.66
63395;BME280;49531;-34.520;150.798;2024-03-23T04:21:56;101255.44;;;25.63;54.38
63395;BME280;49531;-34.520;150.798;2024-03-23T04:24:22;101263.09;;;25.61;54.39
63395;BME280;49531;-34.520;150.798;2024-03-23T04:26:50;101260.66;;;25.59;54.51
63395;BME280;49531;-34.520;150.798;2024-03-23T04:29:16;101254.41;;;25.59;54.71
63395;BME280;49531;-34.520;150.798;2024-03-23T04:31:43;101253.81;;;25.62;54.58
63395;BME280;49531;-34.520;150.798;2024-03-23T04:34:10;101241.00;;;25.57;54.86
63395;BME280;49531;-34.520;150.798;2024-03-23T04:36:36;101232.72;;;25.63;54.71
63395;BME280;49531;-34.520;150.798;2024-03-23T04:39:02;101251.66;;;25.59;55.13
63395;BME280;49531;-34.520;150.798;2024-03-23T04:41:29;101243.47;;;25.54;54.95
63395;BME280;49531;-34.520;150.798;2024-03-23T04:43:55;101242.97;;;25.47;55.05
63395;BME280;49531;-34.520;150.798;2024-03-23T04:46:22;101238.31;;;25.47;55.50
63395;BME280;49531;-34.520;150.798;2024-03-23T04:48:48;101238.03;;;25.49;55.44
63395;BME280;49531;-34.520;150.798;2024-03-23T04:51:21;101253.63;;;25.48;55.23
63395;BME280;49531;-34.520;150.798;2024-03-23T04:53:48;101253.94;;;25.37;54.86
63395;BME280;49531;-34.520;150.798;2024-03-23T04:56:17;101259.16;;;25.33;54.88
63395;BME280;49531;-34.520;150.798;2024-03-23T04:58:44;101252.88;;;25.27;55.39
63395;BME280;49531;-34.520;150.798;2024-03-23T05:01:10;101250.69;;;25.24;55.34
63395;BME280;49531;-34.520;150.798;2024-03-23T05:03:37;101243.31;;;25.25;55.41
63395;BME280;49531;-34.520;150.798;2024-03-23T05:06:03;101235.09;;;25.30;55.18
63395;BME280;49531;-34.520;150.798;2024-03-23T05:08:31;101239.19;;;25.33;55.61
63395;BME280;49531;-34.520;150.798;2024-03-23T05:10:57;101232.34;;;25.30;55.30
63395;BME280;49531;-34.520;150.798;2024-03-23T05:13:23;101236.22;;;25.24;55.41
63395;BME280;49531;-34.520;150.798;2024-03-23T05:15:53;101237.91;;;25.15;55.58
63395;BME280;49531;-34.520;150.798;2024-03-23T05:18:20;101240.91;;;25.18;55.74
63395;BME280;49531;-34.520;150.798;2024-03-23T05:20:46;101237.88;;;25.20;55.70
63395;BME280;49531;-34.520;150.798;2024-03-23T05:23:13;101243.56;;;25.29;54.99
63395;BME280;49531;-34.520;150.798;2024-03-23T05:25:39;101239.78;;;25.19;55.20
63395;BME280;49531;-34.520;150.798;2024-03-23T05:28:06;101233.00;;;25.12;54.96
63395;BME280;49531;-34.520;150.798;2024-03-23T05:30:32;101234.38;;;25.04;55.50
63395;BME280;49531;-34.520;150.798;2024-03-23T05:32:59;101228.63;;;25.16;55.04
63395;BME280;49531;-34.520;150.798;2024-03-23T05:35:25;101232.72;;;25.13;54.94
63395;BME280;49531;-34.520;150.798;2024-03-23T05:37:52;101235.44;;;25.13;54.93
63395;BME280;49531;-34.520;150.798;2024-03-23T05:40:18;101240.41;;;25.01;55.57
63395;BME280;49531;-34.520;150.798;2024-03-23T05:42:45;101243.69;;;24.98;56.13
63395;BME280;49531;-34.520;150.798;2024-03-23T05:45:11;101242.56;;;24.94;55.69
63395;BME280;49531;-34.520;150.798;2024-03-23T05:47:38;101237.41;;;24.98;55.56
63395;BME280;49531;-34.520;150.798;2024-03-23T05:50:04;101239.03;;;25.04;55.13
63395;BME280;49531;-34.520;150.798;2024-03-23T05:52:31;101247.78;;;25.06;54.59
63395;BME280;49531;-34.520;150.798;2024-03-23T05:54:57;101254.31;;;24.94;55.03
63395;BME280;49531;-34.520;150.798;2024-03-23T05:57:24;101262.81;;;24.93;55.53
63395;BME280;49531;-34.520;150.798;2024-03-23T05:59:51;101268.53;;;24.91;55.55
63395;BME280;49531;-34.520;150.798;2024-03-23T06:02:17;101262.81;;;24.93;55.21
63395;BME280;49531;-34.520;150.798;2024-03-23T06:04:45;101260.91;;;24.83;55.56
63395;BME280;49531;-34.520;150.798;2024-03-23T06:07:11;101269.66;;;24.80;55.91
63395;BME280;49531;-34.520;150.798;2024-03-23T06:09:40;101264.19;;;24.80;56.06
63395;BME280;49531;-34.520;150.798;2024-03-23T06:12:06;101262.31;;;24.76;55.97
63395;BME280;49531;-34.520;150.798;2024-03-23T06:14:33;101266.69;;;24.72;56.45
63395;BME280;49531;-34.520;150.798;2024-03-23T06:17:00;101251.88;;;24.83;55.97
63395;BME280;49531;-34.520;150.798;2024-03-23T06:19:27;101251.34;;;24.81;55.93
63395;BME280;49531;-34.520;150.798;2024-03-23T06:21:53;101246.41;;;24.93;55.73
63395;BME280;49531;-34.520;150.798;2024-03-23T06:24:21;101245.88;;;24.86;55.69
63395;BME280;49531;-34.520;150.798;2024-03-23T06:26:48;101239.31;;;24.82;55.63
63395;BME280;49531;-34.520;150.798;2024-03-23T06:29:14;101240.97;;;24.83;55.89
63395;BME280;49531;-34.520;150.798;2024-03-23T06:31:41;101246.16;;;24.84;55.12
63395;BME280;49531;-34.520;150.798;2024-03-23T06:34:07;101239.31;;;24.97;55.05
63395;BME280;49531;-34.520;150.798;2024-03-23T06:36:34;101246.97;;;24.90;55.14
63395;BME280;49531;-34.520;150.798;2024-03-23T06:39:02;101244.28;;;24.75;55.24
63395;BME280;49531;-34.520;150.798;2024-03-23T06:41:28;101252.47;;;24.70;55.37
63395;BME280;49531;-34.520;150.798;2024-03-23T06:43:55;101238.81;;;24.65;55.48
63395;BME280;49531;-34.520;150.798;2024-03-23T06:46:22;101241.56;;;24.59;55.85
63395;BME280;49531;-34.520;150.798;2024-03-23T06:48:48;101239.94;;;24.58;55.81
63395;BME280;49531;-34.520;150.798;2024-03-23T06:51:14;101238.56;;;24.71;55.39
63395;BME280;49531;-34.520;150.798;2024-03-23T06:53:41;101246.41;;;24.83;55.27
63395;BME280;49531;-34.520;150.798;2024-03-23T06:56:07;101246.94;;;24.95;54.97
63395;BME280;49531;-34.520;150.798;2024-03-23T06:58:34;101245.34;;;24.99;54.62
63395;BME280;49531;-34.520;150.798;2024-03-23T07:01:00;101245.03;;;25.06;54.82
63395;BME280;49531;-34.520;150.798;2024-03-23T07:03:27;101235.72;;;25.12;54.30
63395;BME280;49531;-34.520;150.798;2024-03-23T07:05:57;101234.91;;;25.11;54.48
63395;BME280;49531;-34.520;150.798;2024-03-23T07:08:23;101236.78;;;25.21;54.30
63395;BME280;49531;-34.520;150.798;2024-03-23T07:10:50;101227.47;;;25.22;54.25
63395;BME280;49531;-34.520;150.798;2024-03-23T07:13:16;101232.38;;;25.25;53.96
63395;BME280;49531;-34.520;150.798;2024-03-23T07:15:43;101235.38;;;25.29;53.95
63395;BME280;49531;-34.520;150.798;2024-03-23T07:18:09;101237.56;;;25.32;53.90
63395;BME280;49531;-34.520;150.798;2024-03-23T07:20:36;101237.00;;;25.35;53.77
63395;BME280;49531;-34.520;150.798;2024-03-23T07:23:02;101240.81;;;25.39;53.68
63395;BME280;49531;-34.520;150.798;2024-03-23T07:25:29;101250.38;;;25.41;53.52
63395;BME280;49531;-34.520;150.798;2024-03-23T07:27:55;101253.94;;;25.37;53.79
63395;BME280;49531;-34.520;150.798;2024-03-23T07:30:22;101252.28;;;25.41;53.42
63395;BME280;49531;-34.520;150.798;2024-03-23T07:32:48;101261.28;;;25.46;53.38
63395;BME280;49531;-34.520;150.798;2024-03-23T07:35:14;101273.03;;;25.47;53.29
63395;BME280;49531;-34.520;150.798;2024-03-23T07:37:41;101271.41;;;25.46;53.31
63395;BME280;49531;-34.520;150.798;2024-03-23T07:40:08;101264.56;;;25.48;53.23
63395;BME280;49531;-34.520;150.798;2024-03-23T07:42:35;101264.81;;;25.52;53.13
63395;BME280;49531;-34.520;150.798;2024-03-23T07:45:01;101265.38;;;25.49;53.45
63395;BME280;49531;-34.520;150.798;2024-03-23T07:47:28;101267.56;;;25.47;53.33
63395;BME280;49531;-34.520;150.798;2024-03-23T07:49:54;101268.66;;;25.51;53.11
63395;BME280;49531;-34.520;150.798;2024-03-23T07:52:20;101280.41;;;25.51;53.03
63395;BME280;49531;-34.520;150.798;2024-03-23T07:54:50;101290.53;;;25.51;53.29
63395;BME280;49531;-34.520;150.798;2024-03-23T07:57:16;101294.38;;;25.50;53.32
63395;BME280;49531;-34.520;150.798;2024-03-23T07:59:42;101304.78;;;25.48;53.20
63395;BME280;49531;-34.520;150.798;2024-03-23T08:02:09;101306.69;;;25.47;53.34
63395;BME280;49531;-34.520;150.798;2024-03-23T08:04:36;101305.06;;;25.46;53.37
63395;BME280;49531;-34.520;150.798;2024-03-23T08:07:02;101320.38;;;25.47;53.11
63395;BME280;49531;-34.520;150.798;2024-03-23T08:09:29;101319.53;;;25.52;53.20
63395;BME280;49531;-34.520;150.798;2024-03-23T08:11:55;101312.97;;;25.48;53.01
63395;BME280;49531;-34.520;150.798;2024-03-23T08:14:22;101317.88;;;25.51;52.94
63395;BME280;49531;-34.520;150.798;2024-03-23T08:16:48;101316.78;;;25.52;53.01
63395;BME280;49531;-34.520;150.798;2024-03-23T08:19:16;101303.13;;;25.52;52.82
63395;BME280;49531;-34.520;150.798;2024-03-23T08:21:43;101302.84;;;25.53;53.01
63395;BME280;49531;-34.520;150.798;2024-03-23T08:24:10;101302.84;;;25.53;52.92
63395;BME280;49531;-34.520;150.798;2024-03-23T08:26:36;101305.56;;;25.53;53.05
63395;BME280;49531;-34.520;150.798;2024-03-23T08:29:03;101299.03;;;25.49;53.13
63395;BME280;49531;-34.520;150.798;2024-03-23T08:31:30;101298.19;;;25.49;53.02
63395;BME280;49531;-34.520;150.798;2024-03-23T08:33:56;101297.66;;;25.47;52.99
63395;BME280;49531;-34.520;150.798;2024-03-23T08:36:23;101301.78;;;25.44;53.14
63395;BME280;49531;-34.520;150.798;2024-03-23T08:38:49;101297.13;;;25.45;53.07
63395;BME280;49531;-34.520;150.798;2024-03-23T08:41:19;101296.03;;;25.46;53.08
63395;BME280;49531;-34.520;150.798;2024-03-23T08:43:45;101309.41;;;25.47;53.06
63395;BME280;49531;-34.520;150.798;2024-03-23T08:46:15;101308.59;;;25.47;52.73
63395;BME280;49531;-34.520;150.798;2024-03-23T08:48:43;101299.03;;;25.44;52.79
63395;BME280;49531;-34.520;150.798;2024-03-23T08:51:11;101295.47;;;25.44;53.14
63395;BME280;49531;-34.520;150.798;2024-03-23T08:53:38;101303.41;;;25.45;52.79
63395;BME280;49531;-34.520;150.798;2024-03-23T08:56:05;101317.06;;;25.50;52.81
63395;BME280;49531;-34.520;150.798;2024-03-23T08:58:35;101317.06;;;25.50;52.80
63395;BME280;49531;-34.520;150.798;2024-03-23T09:01:11;101322.00;;;25.48;52.94
63395;BME280;49531;-34.520;150.798;2024-03-23T09:03:41;101311.91;;;25.44;52.81
63395;BME280;49531;-34.520;150.798;2024-03-23T09:06:08;101309.44;;;25.42;52.86
63395;BME280;49531;-34.520;150.798;2024-03-23T09:08:35;101309.16;;;25.44;52.78
63395;BME280;49531;-34.520;150.798;2024-03-23T09:11:05;101309.41;;;25.47;52.84
63395;BME280;49531;-34.520;150.798;2024-03-23T09:13:33;101313.25;;;25.46;52.64
63395;BME280;49531;-34.520;150.798;2024-03-23T09:15:59;101331.59;;;25.46;52.65
63395;BME280;49531;-34.520;150.798;2024-03-23T09:18:26;101353.47;;;25.46;52.89
63395;BME280;49531;-34.520;150.798;2024-03-23T09:20:52;101348.00;;;25.46;52.86
63395;BME280;49531;-34.520;150.798;2024-03-23T09:23:22;101354.28;;;25.46;52.68
63395;BME280;49531;-34.520;150.798;2024-03-23T09:25:49;101357.00;;;25.51;52.53
63395;BME280;49531;-34.520;150.798;2024-03-23T09:28:15;101356.19;;;25.46;52.73
63395;BME280;49531;-34.520;150.798;2024-03-23T09:30:41;101358.13;;;25.45;52.48
63395;BME280;49531;-34.520;150.798;2024-03-23T09:33:08;101367.41;;;25.44;52.76
63395;BME280;49531;-34.520;150.798;2024-03-23T09:35:41;101351.00;;;25.44;52.73
63395;BME280;49531;-34.520;150.798;2024-03-23T09:38:08;101351.28;;;25.48;52.53
63395;BME280;49531;-34.520;150.798;2024-03-23T09:40:39;101358.38;;;25.49;52.42
63395;BME280;49531;-34.520;150.798;2024-03-23T09:43:06;101363.03;;;25.48;52.36
63395;BME280;49531;-34.520;150.798;2024-03-23T09:45:34;101370.16;;;25.49;52.64
63395;BME280;49531;-34.520;150.798;2024-03-23T09:48:02;101376.44;;;25.50;52.23
63395;BME280;49531;-34.520;150.798;2024-03-23T09:50:29;101366.03;;;25.47;52.33
63395;BME280;49531;-34.520;150.798;2024-03-23T09:52:56;101366.31;;;25.50;52.54
63395;BME280;49531;-34.520;150.798;2024-03-23T09:55:22;101364.41;;;25.46;52.43
63395;BME280;49531;-34.520;150.798;2024-03-23T09:57:49;101367.69;;;25.43;52.41
63395;BME280;49531;-34.520;150.798;2024-03-23T10:00:16;101386.28;;;25.46;52.30
63395;BME280;49531;-34.520;150.798;2024-03-23T10:02:42;101384.38;;;25.46;52.39
63395;BME280;49531;-34.520;150.798;2024-03-23T10:05:21;101381.38;;;25.48;52.24
63395;BME280;49531;-34.520;150.798;2024-03-23T10:07:51;101373.16;;;25.48;52.35
63395;BME280;49531;-34.520;150.798;2024-03-23T10:10:18;101389.56;;;25.48;52.26
63395;BME280;49531;-34.520;150.798;2024-03-23T10:12:45;101385.75;;;25.39;52.47
63395;BME280;49531;-34.520;150.798;2024-03-23T10:15:20;101387.94;;;25.37;52.61
63395;BME280;49531;-34.520;150.798;2024-03-23T10:17:47;101390.16;;;25.30;52.78
63395;BME280;49531;-34.520;150.798;2024-03-23T10:20:17;101400.81;;;25.26;52.73
63395;BME280;49531;-34.520;150.798;2024-03-23T10:22:45;101394.25;;;25.27;52.74
63395;BME280;49531;-34.520;150.798;2024-03-23T10:25:11;101387.41;;;25.24;52.98
63395;BME280;49531;-34.520;150.798;2024-03-23T10:27:39;101372.94;;;25.24;52.77
63395;BME280;49531;-34.520;150.798;2024-03-23T10:30:09;101370.75;;;25.21;52.70
63395;BME280;49531;-34.520;150.798;2024-03-23T10:32:36;101378.41;;;25.24;52.96
63395;BME280;49531;-34.520;150.798;2024-03-23T10:35:21;101372.09;;;25.23;52.69
63395;BME280;49531;-34.520;150.798;2024-03-23T10:37:48;101372.66;;;25.25;52.71
63395;BME280;49531;-34.520;150.798;2024-03-23T10:40:17;101383.03;;;25.23;52.65
63395;BME280;49531;-34.520;150.798;2024-03-23T10:42:44;101380.84;;;25.20;52.81
63395;BME280;49531;-34.520;150.798;2024-03-23T10:45:10;101381.41;;;25.22;52.61
63395;BME280;49531;-34.520;150.798;2024-03-23T10:47:37;101389.06;;;25.20;52.81
63395;BME280;49531;-34.520;150.798;2024-03-23T10:50:04;101383.59;;;25.20;52.74
63395;BME280;49531;-34.520;150.798;2024-03-23T10:52:33;101383.91;;;25.19;52.79
63395;BME280;49531;-34.520;150.798;2024-03-23T10:55:04;101395.94;;;25.18;52.76
63395;BME280;49531;-34.520;150.798;2024-03-23T10:57:41;101389.88;;;25.21;52.84
63395;BME280;49531;-34.520;150.798;2024-03-23T11:00:08;101391.78;;;25.20;52.66
63395;BME280;49531;-34.520;150.798;2024-03-23T11:02:34;101384.69;;;25.19;52.70
63395;BME280;49531;-34.520;150.798;2024-03-23T11:05:01;101370.47;;;25.22;52.59
63395;BME280;49531;-34.520;150.798;2024-03-23T11:07:29;101380.34;;;25.18;52.79
63395;BME280;49531;-34.520;150.798;2024-03-23T11:09:56;101380.91;;;25.15;52.92
63395;BME280;49531;-34.520;150.798;2024-03-23T11:15:34;101391.56;;;25.17;52.73
63395;BME280;49531;-34.520;150.798;2024-03-23T11:17:35;101393.19;;;25.13;52.64
63395;BME280;49531;-34.520;150.798;2024-03-23T11:20:03;101400.56;;;25.12;52.95
63395;BME280;49531;-34.520;150.798;2024-03-23T11:22:46;101387.47;;;25.09;52.83
63395;BME280;49531;-34.520;150.798;2024-03-23T11:25:17;101374.06;;;25.08;52.94
63395;BME280;49531;-34.520;150.798;2024-03-23T11:27:44;101384.72;;;25.04;52.92
63395;BME280;49531;-34.520;150.798;2024-03-23T11:30:12;101398.41;;;25.04;52.87
63395;BME280;49531;-34.520;150.798;2024-03-23T11:32:38;101404.94;;;25.03;53.02
63395;BME280;49531;-34.520;150.798;2024-03-23T11:35:05;101390.47;;;25.03;53.03
63395;BME280;49531;-34.520;150.798;2024-03-23T11:37:32;101392.09;;;25.04;52.89
63395;BME280;49531;-34.520;150.798;2024-03-23T11:39:58;101382.28;;;25.03;52.93
63395;BME280;49531;-34.520;150.798;2024-03-23T11:42:25;101375.97;;;25.02;52.84
63395;BME280;49531;-34.520;150.798;2024-03-23T11:44:52;101372.97;;;25.04;52.97
63395;BME280;49531;-34.520;150.798;2024-03-23T11:47:18;101371.06;;;24.99;52.89
63395;BME280;49531;-34.520;150.798;2024-03-23T11:49:45;101381.44;;;24.97;52.73
63395;BME280;49531;-34.520;150.798;2024-03-23T11:52:14;101375.97;;;24.97;52.93
63395;BME280;49531;-34.520;150.798;2024-03-23T11:54:42;101380.06;;;25.00;52.96
63395;BME280;49531;-34.520;150.798;2024-03-23T11:57:08;101385.00;;;24.98;53.04
63395;BME280;49531;-34.520;150.798;2024-03-23T11:59:35;101372.66;;;24.95;52.85
63395;BME280;49531;-34.520;150.798;2024-03-23T12:02:09;101372.44;;;24.97;52.96
63395;BME280;49531;-34.520;150.798;2024-03-23T12:04:44;101368.59;;;24.98;52.99
63395;BME280;49531;-34.520;150.798;2024-03-23T12:10:07;101372.13;;;24.93;52.93
63395;BME280;49531;-34.520;150.798;2024-03-23T12:12:33;101367.75;;;24.92;52.86
63395;BME280;49531;-34.520;150.798;2024-03-23T12:15:04;101375.94;;;24.92;53.19
63395;BME280;49531;-34.520;150.798;2024-03-23T12:17:32;101378.13;;;24.90;52.96
63395;BME280;49531;-34.520;150.798;2024-03-23T12:19:58;101377.31;;;24.89;53.03
63395;BME280;49531;-34.520;150.798;2024-03-23T12:22:25;101369.38;;;24.88;52.90
63395;BME280;49531;-34.520;150.798;2024-03-23T12:24:52;101372.66;;;24.90;52.93
63395;BME280;49531;-34.520;150.798;2024-03-23T12:27:18;101363.94;;;24.88;53.18
63395;BME280;49531;-34.520;150.798;2024-03-23T12:29:45;101357.91;;;24.86;53.06
63395;BME280;49531;-34.520;150.798;2024-03-23T12:32:14;101366.94;;;24.86;52.88
63395;BME280;49531;-34.520;150.798;2024-03-23T12:34:41;101365.56;;;24.84;53.09
63395;BME280;49531;-34.520;150.798;2024-03-23T12:37:08;101363.66;;;24.84;53.17
63395;BME280;49531;-34.520;150.798;2024-03-23T12:39:41;101366.66;;;24.83;53.34
63395;BME280;49531;-34.520;150.798;2024-03-23T12:42:07;101356.81;;;24.82;53.33
63395;BME280;49531;-34.520;150.798;2024-03-23T12:44:34;101353.53;;;24.80;53.24
63395;BME280;49531;-34.520;150.798;2024-03-23T12:47:00;101343.72;;;24.79;53.25
63395;BME280;49531;-34.520;150.798;2024-03-23T12:49:26;101335.53;;;24.79;53.22
63395;BME280;49531;-34.520;150.798;2024-03-23T12:51:54;101338.28;;;24.79;53.29
63395;BME280;49531;-34.520;150.798;2024-03-23T12:54:24;101336.63;;;24.78;53.31
63395;BME280;49531;-34.520;150.798;2024-03-23T12:56:51;101332.25;;;24.77;53.24
63395;BME280;49531;-34.520;150.798;2024-03-23T12:59:18;101322.97;;;24.78;53.06
63395;BME280;49531;-34.520;150.798;2024-03-23T13:01:44;101329.53;;;24.77;53.38
63395;BME280;49531;-34.520;150.798;2024-03-23T13:04:11;101335.81;;;24.77;53.11
63395;BME280;49531;-34.520;150.798;2024-03-23T13:06:37;101339.34;;;24.73;53.44
63395;BME280;49531;-34.520;150.798;2024-03-23T13:09:04;101330.06;;;24.74;53.15
63395;BME280;49531;-34.520;150.798;2024-03-23T13:11:31;101326.53;;;24.73;53.15
63395;BME280;49531;-34.520;150.798;2024-03-23T13:13:57;101316.41;;;24.74;53.24
63395;BME280;49531;-34.520;150.798;2024-03-23T13:16:24;101312.03;;;24.73;53.45
63395;BME280;49531;-34.520;150.798;2024-03-23T13:18:50;101312.03;;;24.73;53.16
63395;BME280;49531;-34.520;150.798;2024-03-23T13:21:17;101308.50;;;24.72;53.38